createdAt,value
2018-05-23T00:00:29.186Z,19.45
2018-05-23T00:01:29.242Z,19.41
2018-05-23T00:02:29.230Z,19.41
2018-05-23T00:03:29.251Z,19.51
2018-05-23T00:04:29.287Z,19.62
2018-05-23T00:05:29.374Z,19.58
2018-05-23T00:06:29.337Z,19.74
2018-05-23T00:07:29.405Z,19.66
2018-05-23T00:08:29.121Z,19.69
2018-05-23T00:09:29.140Z,19.77
2018-05-23T00:10:29.508Z,19.59
2018-05-23T00:11:29.194Z,19.59
2018-05-23T00:12:29.470Z,19.63
2018-05-23T00:13:29.238Z,19.44
2018-05-23T00:14:29.267Z,19.15
2018-05-23T00:15:29.543Z,19.11
2018-05-23T00:16:29.315Z,19.08
2018-05-23T00:17:29.587Z,19
2018-05-23T00:18:29.612Z,18.84
2018-05-23T00:19:29.634Z,19.04
2018-05-23T00:20:29.659Z,18.99
2018-05-23T00:21:29.690Z,18.74
2018-05-23T00:22:29.764Z,18.8
2018-05-23T00:23:29.477Z,18.77
2018-05-23T00:24:29.517Z,18.77
2018-05-23T00:25:29.781Z,18.71
2018-05-23T00:26:29.304Z,18.74
2018-05-23T00:27:29.314Z,18.66
2018-05-23T00:28:29.597Z,18.58
2018-05-23T00:29:29.360Z,18.65
2018-05-23T00:30:29.898Z,18.6
2018-05-23T00:31:29.924Z,18.68
2018-05-23T00:32:29.948Z,18.73
2018-05-23T00:33:29.457Z,18.78
2018-05-23T00:34:29.733Z,18.86
2018-05-23T00:35:30.010Z,18.95
2018-05-23T00:36:29.777Z,18.9
2018-05-23T00:37:29.872Z,18.95
2018-05-23T00:38:30.056Z,18.86
2018-05-23T00:39:29.870Z,18.96
2018-05-23T00:40:30.105Z,18.96
2018-05-23T00:41:29.876Z,18.98
2018-05-23T00:42:29.902Z,19.15
2018-05-23T00:43:30.174Z,19.12
2018-05-23T00:44:30.197Z,19.04
2018-05-23T00:45:29.721Z,19.21
2018-05-23T00:46:29.993Z,19.18
2018-05-23T00:47:30.018Z,19.16
2018-05-23T00:48:30.293Z,19.18
2018-05-23T00:49:30.341Z,19.29
2018-05-23T00:50:30.116Z,19.21
2018-05-23T00:51:30.385Z,19.29
2018-05-23T00:52:30.460Z,19.37
2018-05-23T00:53:30.176Z,19.39
2018-05-23T00:54:30.456Z,19.45
2018-05-23T00:55:30.480Z,19.48
2018-05-23T00:56:30.501Z,19.51
2018-05-23T00:57:30.279Z,19.41
2018-05-23T00:58:30.568Z,19.39
2018-05-23T00:59:30.569Z,19.16
2018-05-23T01:00:30.606Z,19.14
2018-05-23T01:01:30.626Z,19.14
2018-05-23T01:02:30.391Z,19.16
2018-05-23T01:03:30.664Z,19.14
2018-05-23T01:04:30.438Z,19.21
2018-05-23T01:05:30.463Z,19.19
2018-05-23T01:06:30.739Z,19.34
2018-05-23T01:07:30.910Z,19.36
2018-05-23T01:08:30.790Z,19.44
2018-05-23T01:09:30.806Z,19.51
2018-05-23T01:10:30.571Z,19.41
2018-05-23T01:11:30.611Z,19.48
2018-05-23T01:12:30.624Z,19.52
2018-05-23T01:13:30.645Z,19.51
2018-05-23T01:14:30.924Z,19.45
2018-05-23T01:15:30.958Z,19.29
2018-05-23T01:16:30.969Z,19.15
2018-05-23T01:17:30.585Z,19.09
2018-05-23T01:18:31.022Z,19.14
2018-05-23T01:19:30.787Z,19.02
2018-05-23T01:20:30.552Z,19
2018-05-23T01:21:30.836Z,18.98
2018-05-23T01:22:30.655Z,18.93
2018-05-23T01:23:30.632Z,18.81
2018-05-23T01:24:31.163Z,18.7
2018-05-23T01:25:31.179Z,18.88
2018-05-23T01:26:31.227Z,18.81
2018-05-23T01:27:31.231Z,18.84
2018-05-23T01:28:31.252Z,18.93
2018-05-23T01:29:31.040Z,18.75
2018-05-23T01:30:31.298Z,18.59
2018-05-23T01:31:31.072Z,18.43
2018-05-23T01:32:31.342Z,18.41
2018-05-23T01:33:31.368Z,18.34
2018-05-23T01:34:31.394Z,18.45
2018-05-23T01:35:31.412Z,18.43
2018-05-23T01:36:31.188Z,18.4
2018-05-23T01:37:31.258Z,18.49
2018-05-23T01:38:31.487Z,18.55
2018-05-23T01:39:31.254Z,18.41
2018-05-23T01:40:31.529Z,18.44
2018-05-23T01:41:31.306Z,18.53
2018-05-23T01:42:31.328Z,18.38
2018-05-23T01:43:31.093Z,18.41
2018-05-23T01:44:31.373Z,18.19
2018-05-23T01:45:31.141Z,18.23
2018-05-23T01:46:31.423Z,18.08
2018-05-23T01:47:31.693Z,18.11
2018-05-23T01:48:31.462Z,18.23
2018-05-23T01:49:31.746Z,18.2
2018-05-23T01:50:31.510Z,18.19
2018-05-23T01:51:31.274Z,18.19
2018-05-23T01:52:31.855Z,18.07
2018-05-23T01:53:31.814Z,18.23
2018-05-23T01:54:31.847Z,18.23
2018-05-23T01:55:31.607Z,18.26
2018-05-23T01:56:31.631Z,18.35
2018-05-23T01:57:31.920Z,18.38
2018-05-23T01:58:31.944Z,18.44
2018-05-23T01:59:31.979Z,18.41
2018-05-23T02:00:31.992Z,18.29
2018-05-23T02:01:32.017Z,18.35
2018-05-23T02:02:32.040Z,18.37
2018-05-23T02:03:32.058Z,18.41
2018-05-23T02:04:31.821Z,18.38
2018-05-23T02:05:31.848Z,18.38
2018-05-23T02:06:31.872Z,18.28
2018-05-23T02:07:32.202Z,18.26
2018-05-23T02:08:31.663Z,18.37
2018-05-23T02:09:32.197Z,18.25
2018-05-23T02:10:32.210Z,18.33
2018-05-23T02:11:32.242Z,18.43
2018-05-23T02:12:32.265Z,18.43
2018-05-23T02:13:32.284Z,18.41
2018-05-23T02:14:32.301Z,18.43
2018-05-23T02:15:32.072Z,18.56
2018-05-23T02:16:32.358Z,18.41
2018-05-23T02:17:32.381Z,18.45
2018-05-23T02:18:32.402Z,18.5
2018-05-23T02:19:32.431Z,18.52
2018-05-23T02:20:32.196Z,18.49
2018-05-23T02:21:32.473Z,18.56
2018-05-23T02:22:33.490Z,18.43
2018-05-23T02:23:32.517Z,18.18
2018-05-23T02:24:32.547Z,18.15
2018-05-23T02:25:32.055Z,18.07
2018-05-23T02:26:32.332Z,17.98
2018-05-23T02:27:32.605Z,17.94
2018-05-23T02:28:32.626Z,17.9
2018-05-23T02:29:32.672Z,17.97
2018-05-23T02:30:32.439Z,18.1
2018-05-23T02:31:32.708Z,18.18
2018-05-23T02:32:32.477Z,18.15
2018-05-23T02:33:32.506Z,18.13
2018-05-23T02:34:32.780Z,18.05
2018-05-23T02:35:32.548Z,18.03
2018-05-23T02:36:32.314Z,17.95
2018-05-23T02:37:32.893Z,18.04
2018-05-23T02:38:32.615Z,18.11
2018-05-23T02:39:32.894Z,18.13
2018-05-23T02:40:32.658Z,18.16
2018-05-23T02:41:32.683Z,18.25
2018-05-23T02:42:32.447Z,18.31
2018-05-23T02:43:32.987Z,18.2
2018-05-23T02:44:32.749Z,18.37
2018-05-23T02:45:32.775Z,18.37
2018-05-23T02:46:33.057Z,18.41
2018-05-23T02:47:33.069Z,18.41
2018-05-23T02:48:32.838Z,18.44
2018-05-23T02:49:32.882Z,18.38
2018-05-23T02:50:33.140Z,18.52
2018-05-23T02:51:33.167Z,18.41
2018-05-23T02:52:33.239Z,18.41
2018-05-23T02:53:33.209Z,18.4
2018-05-23T02:54:33.229Z,18.53
2018-05-23T02:55:33.259Z,18.49
2018-05-23T02:56:33.290Z,18.56
2018-05-23T02:57:33.303Z,18.45
2018-05-23T02:58:33.316Z,18.44
2018-05-23T02:59:33.338Z,18.45
2018-05-23T03:00:33.104Z,18.44
2018-05-23T03:01:33.139Z,18.44
2018-05-23T03:02:33.422Z,18.23
2018-05-23T03:03:33.189Z,18.37
2018-05-23T03:04:33.216Z,18.26
2018-05-23T03:05:33.487Z,18.15
2018-05-23T03:06:33.259Z,18.16
2018-05-23T03:07:33.329Z,18.05
2018-05-23T03:08:33.558Z,17.87
2018-05-23T03:09:33.579Z,17.89
2018-05-23T03:10:33.599Z,17.76
2018-05-23T03:11:33.364Z,17.86
2018-05-23T03:12:33.639Z,17.86
2018-05-23T03:13:33.664Z,17.63
2018-05-23T03:14:33.697Z,17.74
2018-05-23T03:15:33.711Z,17.67
2018-05-23T03:16:33.476Z,17.59
2018-05-23T03:17:33.507Z,17.54
2018-05-23T03:18:33.523Z,17.49
2018-05-23T03:19:33.294Z,17.45
2018-05-23T03:20:33.830Z,17.46
2018-05-23T03:21:33.848Z,17.42
2018-05-23T03:22:33.929Z,17.42
2018-05-23T03:23:33.900Z,17.48
2018-05-23T03:24:33.927Z,17.56
2018-05-23T03:25:33.684Z,17.51
2018-05-23T03:26:33.716Z,17.42
2018-05-23T03:27:33.747Z,17.34
2018-05-23T03:28:33.759Z,17.38
2018-05-23T03:29:34.030Z,17.41
2018-05-23T03:30:33.802Z,17.52
2018-05-23T03:31:34.091Z,17.42
2018-05-23T03:32:33.895Z,17.38
2018-05-23T03:33:33.874Z,17.3
2018-05-23T03:34:33.895Z,17.23
2018-05-23T03:35:34.167Z,17.31
2018-05-23T03:36:34.195Z,17.34
2018-05-23T03:37:34.270Z,17.38
2018-05-23T03:38:34.245Z,17.41
2018-05-23T03:39:33.999Z,17.46
2018-05-23T03:40:34.276Z,17.52
2018-05-23T03:41:34.046Z,17.57
2018-05-23T03:42:34.323Z,17.51
2018-05-23T03:43:34.345Z,17.52
2018-05-23T03:44:34.374Z,17.67
2018-05-23T03:45:34.391Z,17.67
2018-05-23T03:46:34.418Z,17.6
2018-05-23T03:47:34.440Z,17.64
2018-05-23T03:48:33.949Z,17.57
2018-05-23T03:49:34.465Z,17.51
2018-05-23T03:50:34.495Z,17.65
2018-05-23T03:51:34.509Z,17.7
2018-05-23T03:52:34.595Z,17.56
2018-05-23T03:53:34.577Z,17.54
2018-05-23T03:54:34.600Z,17.68
2018-05-23T03:55:34.372Z,17.7
2018-05-23T03:56:34.126Z,17.72
2018-05-23T03:57:34.658Z,17.72
2018-05-23T03:58:34.679Z,17.74
2018-05-23T03:59:34.701Z,17.87
2018-05-23T04:00:34.213Z,17.8
2018-05-23T04:01:34.748Z,17.68
2018-05-23T04:02:34.265Z,17.71
2018-05-23T04:03:34.793Z,17.67
2018-05-23T04:04:34.816Z,17.7
2018-05-23T04:05:34.837Z,17.72
2018-05-23T04:06:34.865Z,17.52
2018-05-23T04:07:34.880Z,17.51
2018-05-23T04:08:34.903Z,17.51
2018-05-23T04:09:34.945Z,17.39
2018-05-23T04:10:34.441Z,17.3
2018-05-23T04:11:34.714Z,17.34
2018-05-23T04:12:34.731Z,17.31
2018-05-23T04:13:34.753Z,17.33
2018-05-23T04:14:34.799Z,17.44
2018-05-23T04:15:34.956Z,17.38
2018-05-23T04:16:34.820Z,17.48
2018-05-23T04:17:35.100Z,17.59
2018-05-23T04:18:35.116Z,17.56
2018-05-23T04:19:35.145Z,17.52
2018-05-23T04:20:35.173Z,17.57
2018-05-23T04:21:35.199Z,17.67
2018-05-23T04:22:34.714Z,17.52
2018-05-23T04:23:34.994Z,17.49
2018-05-23T04:24:35.275Z,17.49
2018-05-23T04:25:35.036Z,17.51
2018-05-23T04:26:35.324Z,17.54
2018-05-23T04:27:35.337Z,17.51
2018-05-23T04:28:35.352Z,17.52
2018-05-23T04:29:35.127Z,17.48
2018-05-23T04:30:35.149Z,17.42
2018-05-23T04:31:35.174Z,17.46
2018-05-23T04:32:35.444Z,17.51
2018-05-23T04:33:35.478Z,17.6
2018-05-23T04:34:35.237Z,17.57
2018-05-23T04:35:35.012Z,17.63
2018-05-23T04:36:35.031Z,17.54
2018-05-23T04:37:35.562Z,17.45
2018-05-23T04:38:35.585Z,17.7
2018-05-23T04:39:35.360Z,17.56
2018-05-23T04:40:35.124Z,17.68
2018-05-23T04:41:35.399Z,17.79
2018-05-23T04:42:35.670Z,17.74
2018-05-23T04:43:35.444Z,17.86
2018-05-23T04:44:35.726Z,17.87
2018-05-23T04:45:35.745Z,17.9
2018-05-23T04:46:35.768Z,17.83
2018-05-23T04:47:35.794Z,17.95
2018-05-23T04:48:35.558Z,18
2018-05-23T04:49:35.593Z,17.89
2018-05-23T04:50:35.607Z,17.76
2018-05-23T04:51:35.878Z,17.83
2018-05-23T04:52:35.888Z,17.74
2018-05-23T04:53:35.916Z,17.74
2018-05-23T04:54:35.932Z,17.78
2018-05-23T04:55:35.714Z,17.68
2018-05-23T04:56:35.982Z,17.67
2018-05-23T04:57:36.005Z,17.74
2018-05-23T04:58:36.024Z,17.74
2018-05-23T04:59:36.045Z,17.8
2018-05-23T05:00:35.818Z,17.74
2018-05-23T05:01:36.102Z,17.72
2018-05-23T05:02:36.129Z,17.7
2018-05-23T05:03:36.152Z,17.83
2018-05-23T05:04:35.920Z,17.98
2018-05-23T05:05:36.229Z,18.05
2018-05-23T05:06:35.964Z,18.05
2018-05-23T05:07:36.244Z,18.07
2018-05-23T05:08:36.263Z,18.1
2018-05-23T05:09:36.292Z,18.1
2018-05-23T05:10:36.065Z,18.19
2018-05-23T05:11:36.332Z,18.23
2018-05-23T05:12:36.363Z,18.4
2018-05-23T05:13:36.397Z,18.29
2018-05-23T05:14:36.409Z,18.19
2018-05-23T05:15:36.170Z,18.05
2018-05-23T05:16:36.192Z,18.01
2018-05-23T05:17:36.227Z,18.01
2018-05-23T05:18:36.496Z,18.13
2018-05-23T05:19:36.261Z,18.18
2018-05-23T05:20:36.284Z,18.26
2018-05-23T05:21:36.309Z,18.25
2018-05-23T05:22:36.327Z,18.31
2018-05-23T05:23:36.345Z,18.29
2018-05-23T05:24:36.393Z,18.34
2018-05-23T05:25:36.660Z,18.44
2018-05-23T05:26:36.429Z,18.38
2018-05-23T05:27:36.451Z,18.44
2018-05-23T05:28:36.728Z,18.55
2018-05-23T05:29:36.755Z,18.68
2018-05-23T05:30:36.283Z,18.75
2018-05-23T05:31:36.801Z,18.62
2018-05-23T05:32:36.825Z,18.49
2018-05-23T05:33:36.850Z,18.59
2018-05-23T05:34:36.870Z,18.6
2018-05-23T05:35:36.903Z,18.47
2018-05-23T05:36:36.914Z,18.62
2018-05-23T05:37:36.936Z,18.7
2018-05-23T05:38:36.963Z,18.59
2018-05-23T05:39:36.987Z,18.68
2018-05-23T05:40:37.033Z,18.7
2018-05-23T05:41:37.047Z,18.7
2018-05-23T05:42:37.057Z,18.74
2018-05-23T05:43:36.825Z,18.71
2018-05-23T05:44:36.860Z,18.75
2018-05-23T05:45:37.126Z,18.86
2018-05-23T05:46:36.913Z,18.99
2018-05-23T05:47:37.170Z,19.12
2018-05-23T05:48:37.205Z,19.07
2018-05-23T05:49:36.965Z,19.15
2018-05-23T05:50:37.250Z,19.36
2018-05-23T05:51:37.033Z,19.36
2018-05-23T05:52:37.037Z,19.24
2018-05-23T05:53:37.177Z,19.26
2018-05-23T05:54:37.091Z,19.27
2018-05-23T05:55:37.361Z,19.26
2018-05-23T05:56:37.382Z,19.21
2018-05-23T05:57:37.408Z,19.14
2018-05-23T05:58:37.177Z,19.11
2018-05-23T05:59:37.454Z,18.93
2018-05-23T06:00:37.486Z,18.93
2018-05-23T06:01:37.507Z,18.8
2018-05-23T06:02:37.535Z,18.73
2018-05-23T06:03:37.297Z,18.88
2018-05-23T06:04:37.575Z,19
2018-05-23T06:05:37.348Z,19.16
2018-05-23T06:06:37.626Z,19.29
2018-05-23T06:07:37.648Z,19.39
2018-05-23T06:08:37.470Z,19.56
2018-05-23T06:09:37.931Z,19.49
2018-05-23T06:10:37.728Z,19.58
2018-05-23T06:11:37.743Z,19.79
2018-05-23T06:12:37.779Z,19.56
2018-05-23T06:13:37.791Z,19.58
2018-05-23T06:14:37.830Z,19.4
2018-05-23T06:15:37.589Z,19.49
2018-05-23T06:16:37.611Z,19.18
2018-05-23T06:17:37.631Z,18.93
2018-05-23T06:18:37.679Z,19.22
2018-05-23T06:19:37.936Z,19.27
2018-05-23T06:20:37.706Z,19.19
2018-05-23T06:21:37.731Z,19.09
2018-05-23T06:22:37.754Z,19.36
2018-05-23T06:23:37.826Z,19.14
2018-05-23T06:24:37.799Z,19.19
2018-05-23T06:25:38.079Z,19.39
2018-05-23T06:26:38.106Z,19.41
2018-05-23T06:27:38.110Z,19.39
2018-05-23T06:28:38.131Z,19.48
2018-05-23T06:29:37.925Z,19.19
2018-05-23T06:30:37.949Z,18.83
2018-05-23T06:31:38.225Z,18.95
2018-05-23T06:32:37.994Z,18.98
2018-05-23T06:33:38.072Z,18.93
2018-05-23T06:34:38.299Z,18.98
2018-05-23T06:35:38.328Z,19.04
2018-05-23T06:36:38.346Z,19.24
2018-05-23T06:37:38.367Z,19.3
2018-05-23T06:38:38.433Z,19.44
2018-05-23T06:39:38.405Z,19.37
2018-05-23T06:40:38.438Z,19.58
2018-05-23T06:41:38.456Z,19.49
2018-05-23T06:42:38.227Z,19.63
2018-05-23T06:43:38.625Z,19.66
2018-05-23T06:44:38.529Z,19.82
2018-05-23T06:45:38.604Z,20.06
2018-05-23T06:46:38.070Z,20.06
2018-05-23T06:47:38.346Z,20.11
2018-05-23T06:48:38.381Z,20.25
2018-05-23T06:49:38.152Z,20.22
2018-05-23T06:50:38.687Z,20.39
2018-05-23T06:51:38.709Z,20.56
2018-05-23T06:52:38.734Z,20.65
2018-05-23T06:53:38.557Z,20.65
2018-05-23T06:54:38.553Z,20.7
2018-05-23T06:55:38.356Z,20.63
2018-05-23T06:56:38.840Z,20.66
2018-05-23T06:57:38.854Z,20.88
2018-05-23T06:58:38.625Z,20.81
2018-05-23T06:59:38.650Z,20.92
2018-05-23T07:00:38.679Z,20.96
2018-05-23T07:01:38.960Z,21.05
2018-05-23T07:02:38.988Z,21.09
2018-05-23T07:03:39.005Z,21.14
2018-05-23T07:04:39.047Z,20.95
2018-05-23T07:05:39.060Z,21
2018-05-23T07:06:39.179Z,21.02
2018-05-23T07:07:39.113Z,20.96
2018-05-23T07:08:40.430Z,21.18
2018-05-23T07:09:39.167Z,21.22
2018-05-23T07:10:38.930Z,21.29
2018-05-23T07:11:39.196Z,21.37
2018-05-23T07:12:38.973Z,21.5
2018-05-23T07:13:39.250Z,21.54
2018-05-23T07:14:38.768Z,20.95
2018-05-23T07:15:39.045Z,21
2018-05-23T07:16:38.816Z,20.99
2018-05-23T07:17:39.380Z,21.02
2018-05-23T07:18:39.126Z,20.93
2018-05-23T07:19:39.408Z,20.97
2018-05-23T07:20:39.178Z,21.03
2018-05-23T07:21:39.462Z,21.02
2018-05-23T07:22:39.228Z,21.07
2018-05-23T07:23:39.575Z,21.06
2018-05-23T07:24:39.286Z,20.93
2018-05-23T07:25:39.556Z,21.03
2018-05-23T07:26:39.584Z,21.33
2018-05-23T07:27:39.697Z,21.55
2018-05-23T07:28:39.378Z,21.8
2018-05-23T07:29:39.670Z,21.83
2018-05-23T07:30:39.428Z,21.85
2018-05-23T07:31:39.814Z,21.69
2018-05-23T07:32:39.482Z,21.62
2018-05-23T07:33:39.821Z,21.45
2018-05-23T07:34:39.793Z,21.5
2018-05-23T07:35:39.814Z,21.77
2018-05-23T07:36:39.581Z,21.85
2018-05-23T07:37:39.609Z,22.02
2018-05-23T07:38:39.892Z,22.33
2018-05-23T07:39:39.914Z,22.47
2018-05-23T07:40:39.687Z,22.41
2018-05-23T07:41:39.976Z,22.1
2018-05-23T07:42:39.996Z,22.22
2018-05-23T07:43:40.017Z,22.43
2018-05-23T07:44:39.803Z,22.66
2018-05-23T07:45:39.816Z,22.84
2018-05-23T07:46:40.105Z,22.96
2018-05-23T07:47:40.121Z,23.15
2018-05-23T07:48:40.208Z,23.31
2018-05-23T07:49:39.913Z,23.48
2018-05-23T07:50:40.192Z,23.63
2018-05-23T07:51:39.983Z,23.66
2018-05-23T07:52:40.248Z,23.8
2018-05-23T07:53:40.271Z,23.92
2018-05-23T07:54:40.309Z,23.83
2018-05-23T07:55:40.065Z,23.61
2018-05-23T07:56:40.556Z,23.65
2018-05-23T07:57:40.134Z,23.73
2018-05-23T07:58:41.351Z,23.77
2018-05-23T07:59:40.437Z,23.73
2018-05-23T08:00:40.459Z,23.78
2018-05-23T08:01:39.973Z,23.81
2018-05-23T08:02:40.255Z,23.92
2018-05-23T08:03:40.592Z,23.69
2018-05-23T08:04:40.558Z,23.63
2018-05-23T08:05:40.319Z,23.63
2018-05-23T08:06:40.340Z,23.76
2018-05-23T08:07:40.370Z,23.73
2018-05-23T08:08:40.399Z,23.74
2018-05-23T08:09:40.425Z,23.86
2018-05-23T08:10:40.193Z,23.98
2018-05-23T08:11:40.473Z,24.02
2018-05-23T08:12:40.758Z,24.05
2018-05-23T08:13:40.291Z,24.03
2018-05-23T08:14:40.826Z,24.1
2018-05-23T08:15:40.857Z,24.05
2018-05-23T08:16:40.878Z,23.93
2018-05-23T08:17:40.903Z,23.95
2018-05-23T08:18:40.949Z,23.88
2018-05-23T08:19:40.957Z,23.95
2018-05-23T08:20:40.729Z,23.86
2018-05-23T08:21:40.768Z,23.71
2018-05-23T08:22:41.040Z,23.71
2018-05-23T08:23:41.069Z,23.59
2018-05-23T08:24:41.091Z,23.63
2018-05-23T08:25:40.868Z,23.69
2018-05-23T08:26:40.877Z,23.84
2018-05-23T08:27:41.207Z,23.88
2018-05-23T08:28:40.949Z,23.98
2018-05-23T08:29:41.292Z,23.83
2018-05-23T08:30:40.744Z,23.84
2018-05-23T08:31:41.289Z,23.84
2018-05-23T08:32:41.050Z,23.98
2018-05-23T08:33:41.075Z,24.02
2018-05-23T08:34:41.514Z,24.14
2018-05-23T08:35:41.130Z,23.96
2018-05-23T08:36:41.157Z,23.92
2018-05-23T08:37:41.436Z,23.81
2018-05-23T08:38:41.461Z,23.88
2018-05-23T08:39:41.234Z,23.98
2018-05-23T08:40:41.258Z,23.84
2018-05-23T08:41:41.289Z,23.76
2018-05-23T08:42:41.060Z,23.87
2018-05-23T08:43:41.596Z,23.81
2018-05-23T08:44:41.626Z,23.95
2018-05-23T08:45:41.416Z,23.91
2018-05-23T08:46:41.677Z,23.87
2018-05-23T08:47:41.723Z,23.78
2018-05-23T08:48:41.728Z,23.78
2018-05-23T08:49:41.800Z,23.92
2018-05-23T08:50:41.512Z,23.93
2018-05-23T08:51:41.553Z,24.05
2018-05-23T08:52:41.595Z,24.06
2018-05-23T08:53:41.867Z,24.17
2018-05-23T08:54:41.889Z,24.36
2018-05-23T08:55:41.915Z,24.5
2018-05-23T08:56:41.943Z,24.38
2018-05-23T08:57:41.968Z,24.58
2018-05-23T08:58:41.991Z,24.61
2018-05-23T08:59:41.766Z,24.61
2018-05-23T09:00:41.794Z,24.74
2018-05-23T09:01:41.808Z,24.81
2018-05-23T09:02:42.099Z,24.81
2018-05-23T09:03:42.126Z,24.92
2018-05-23T09:04:42.147Z,25.06
2018-05-23T09:05:41.925Z,25.13
2018-05-23T09:06:42.205Z,25.26
2018-05-23T09:07:42.244Z,25.35
2018-05-23T09:08:42.281Z,25.35
2018-05-23T09:09:42.034Z,25.25
2018-05-23T09:10:42.060Z,25.23
2018-05-23T09:11:42.342Z,25.18
2018-05-23T09:12:42.571Z,25.04
2018-05-23T09:13:42.139Z,24.89
2018-05-23T09:14:42.472Z,25.16
2018-05-23T09:15:42.194Z,24.98
2018-05-23T09:16:42.240Z,24.98
2018-05-23T09:17:42.251Z,25.04
2018-05-23T09:18:42.276Z,25.08
2018-05-23T09:19:43.558Z,25.08
2018-05-23T09:20:42.584Z,24.91
2018-05-23T09:21:42.600Z,24.61
2018-05-23T09:22:42.375Z,24.3
2018-05-23T09:23:42.668Z,24.45
2018-05-23T09:24:42.713Z,24.58
2018-05-23T09:25:42.738Z,24.58
2018-05-23T09:26:42.757Z,24.65
2018-05-23T09:27:42.520Z,24.92
2018-05-23T09:28:42.801Z,25.07
2018-05-23T09:29:42.897Z,25.33
2018-05-23T09:30:42.861Z,25.46
2018-05-23T09:31:42.878Z,25.43
2018-05-23T09:32:42.920Z,25.36
2018-05-23T09:33:42.930Z,25.4
2018-05-23T09:34:42.701Z,25.41
2018-05-23T09:35:42.741Z,25.38
2018-05-23T09:36:42.768Z,25.46
2018-05-23T09:37:42.795Z,25.4
2018-05-23T09:38:43.076Z,25.28
2018-05-23T09:39:42.856Z,25.47
2018-05-23T09:40:43.143Z,25.69
2018-05-23T09:41:43.164Z,25.88
2018-05-23T09:42:42.936Z,26.05
2018-05-23T09:43:42.959Z,26.33
2018-05-23T09:44:43.053Z,26.65
2018-05-23T09:45:43.093Z,26.83
2018-05-23T09:46:43.045Z,26.9
2018-05-23T09:47:43.327Z,27.03
2018-05-23T09:48:43.364Z,27.3
2018-05-23T09:49:43.128Z,27.75
2018-05-23T09:50:43.411Z,28.11
2018-05-23T09:51:43.181Z,28.45
2018-05-23T09:52:43.466Z,28.69
2018-05-23T09:53:43.497Z,29.17
2018-05-23T09:54:43.318Z,29.41
2018-05-23T09:55:43.548Z,29.65
2018-05-23T09:56:43.586Z,30.03
2018-05-23T09:57:43.611Z,30.27
2018-05-23T09:58:43.639Z,30.47
2018-05-23T09:59:43.472Z,30.63
2018-05-23T10:00:43.701Z,30.96
2018-05-23T10:01:43.556Z,31.21
2018-05-23T10:02:43.507Z,31.34
2018-05-23T10:03:43.807Z,31.46
2018-05-23T10:04:43.820Z,31.27
2018-05-23T10:05:43.352Z,31.43
2018-05-23T10:06:43.636Z,31.59
2018-05-23T10:07:43.669Z,31.7
2018-05-23T10:08:43.953Z,31.65
2018-05-23T10:09:44.130Z,31.59
2018-05-23T10:10:43.509Z,31.14
2018-05-23T10:11:44.047Z,30.8
2018-05-23T10:12:44.075Z,30.62
2018-05-23T10:13:43.857Z,30.59
2018-05-23T10:14:43.886Z,30.37
2018-05-23T10:15:43.918Z,29.93
2018-05-23T10:16:44.208Z,29.57
2018-05-23T10:17:43.725Z,29.54
2018-05-23T10:18:44.268Z,29.54
2018-05-23T10:19:44.365Z,29.82
2018-05-23T10:20:44.075Z,30.39
2018-05-23T10:21:44.361Z,30.91
2018-05-23T10:22:44.391Z,31.06
2018-05-23T10:23:44.171Z,31.09
2018-05-23T10:24:44.200Z,31.02
2018-05-23T10:25:44.228Z,30.96
2018-05-23T10:26:44.727Z,31.18
2018-05-23T10:27:44.291Z,31.51
2018-05-23T10:28:44.319Z,31.73
2018-05-23T10:29:44.356Z,32.18
2018-05-23T10:30:44.397Z,32.29
2018-05-23T10:31:44.671Z,32.58
2018-05-23T10:32:44.722Z,32.56
2018-05-23T10:33:44.732Z,32.52
2018-05-23T10:34:44.558Z,32.23
2018-05-23T10:35:44.800Z,32.01
2018-05-23T10:36:44.578Z,31.9
2018-05-23T10:37:44.862Z,31.71
2018-05-23T10:38:44.886Z,31.58
2018-05-23T10:39:44.725Z,31.28
2018-05-23T10:40:44.699Z,31.18
2018-05-23T10:41:44.985Z,31.2
2018-05-23T10:42:45.014Z,30.87
2018-05-23T10:43:45.044Z,30.68
2018-05-23T10:44:45.102Z,30.51
2018-05-23T10:45:45.088Z,30.43
2018-05-23T10:46:44.865Z,30.47
2018-05-23T10:47:45.148Z,30.55
2018-05-23T10:48:45.178Z,30.47
2018-05-23T10:49:44.956Z,30.35
2018-05-23T10:50:45.004Z,30.4
2018-05-23T10:51:45.063Z,30.4
2018-05-23T10:52:45.074Z,30.59
2018-05-23T10:53:45.352Z,30.57
2018-05-23T10:54:45.384Z,30.85
2018-05-23T10:55:45.410Z,31.28
2018-05-23T10:56:45.185Z,31.44
2018-05-23T10:57:45.471Z,31.4
2018-05-23T10:58:45.495Z,31.14
2018-05-23T10:59:45.329Z,31.15
2018-05-23T11:00:45.312Z,31.15
2018-05-23T11:01:45.340Z,31.4
2018-05-23T11:02:45.641Z,31.66
2018-05-23T11:03:45.669Z,31.9
2018-05-23T11:04:45.693Z,31.94
2018-05-23T11:05:46.135Z,31.74
2018-05-23T11:06:45.244Z,32.22
2018-05-23T11:07:45.527Z,32.64
2018-05-23T11:08:45.563Z,32.63
2018-05-23T11:09:46.046Z,32.37
2018-05-23T11:10:45.874Z,32.01
2018-05-23T11:11:45.656Z,31.7
2018-05-23T11:12:45.743Z,31.62
2018-05-23T11:13:45.971Z,31.46
2018-05-23T11:14:46.119Z,31.54
2018-05-23T11:15:45.776Z,31.94
2018-05-23T11:16:46.064Z,32.09
2018-05-23T11:17:45.854Z,32.18
2018-05-23T11:18:45.867Z,32.03
2018-05-23T11:19:45.900Z,31.55
2018-05-23T11:20:46.180Z,31.58
2018-05-23T11:21:45.709Z,31.65
2018-05-23T11:22:45.996Z,31.66
2018-05-23T11:23:46.278Z,31.81
2018-05-23T11:24:46.109Z,32.04
2018-05-23T11:25:46.090Z,32.56
2018-05-23T11:26:46.384Z,33.39
2018-05-23T11:27:46.408Z,34.29
2018-05-23T11:28:46.183Z,34.85
2018-05-23T11:29:46.672Z,35.31
2018-05-23T11:30:46.252Z,35.55
2018-05-23T11:31:46.537Z,35.34
2018-05-23T11:32:46.060Z,34.55
2018-05-23T11:33:46.428Z,34.18
2018-05-23T11:34:46.381Z,33.62
2018-05-23T11:35:46.663Z,33.02
2018-05-23T11:36:46.441Z,32.82
2018-05-23T11:37:46.729Z,32.73
2018-05-23T11:38:46.760Z,32.38
2018-05-23T11:39:46.690Z,32.49
2018-05-23T11:40:46.824Z,33.14
2018-05-23T11:41:46.855Z,33.8
2018-05-23T11:42:46.890Z,34.45
2018-05-23T11:43:46.673Z,35.3
2018-05-23T11:44:46.696Z,35.18
2018-05-23T11:45:46.986Z,35.15
2018-05-23T11:46:47.338Z,34.6
2018-05-23T11:47:47.055Z,34.29
2018-05-23T11:48:47.089Z,33.95
2018-05-23T11:49:46.914Z,33.94
2018-05-23T11:50:47.148Z,33.73
2018-05-23T11:51:47.191Z,33.55
2018-05-23T11:52:46.964Z,33.5
2018-05-23T11:53:47.249Z,33.14
2018-05-23T11:54:47.573Z,32.93
2018-05-23T11:55:47.312Z,32.49
2018-05-23T11:56:47.334Z,32.33
2018-05-23T11:57:47.362Z,32.01
2018-05-23T11:58:47.145Z,31.55
2018-05-23T11:59:47.431Z,31.51
2018-05-23T12:00:47.463Z,31.54
2018-05-23T12:01:47.576Z,31.54
2018-05-23T12:02:47.527Z,31.78
2018-05-23T12:03:47.305Z,32.51
2018-05-23T12:04:47.392Z,32.7
2018-05-23T12:05:47.620Z,32.37
2018-05-23T12:06:47.655Z,32.41
2018-05-23T12:07:47.433Z,32.85
2018-05-23T12:08:47.726Z,33.46
2018-05-23T12:09:47.559Z,34.27
2018-05-23T12:10:48.104Z,34.83
2018-05-23T12:11:47.848Z,35.42
2018-05-23T12:12:47.851Z,36.08
2018-05-23T12:13:47.628Z,36.79
2018-05-23T12:14:47.708Z,37.55
2018-05-23T12:15:48.153Z,37.8
2018-05-23T12:16:47.963Z,38.2
2018-05-23T12:17:48.001Z,38.77
2018-05-23T12:18:48.033Z,39.34
2018-05-23T12:19:48.298Z,39.46
2018-05-23T12:20:48.099Z,39.71
2018-05-23T12:21:47.888Z,40.06
2018-05-23T12:22:47.918Z,40.56
2018-05-23T12:23:48.198Z,40.31
2018-05-23T12:24:48.291Z,39.78
2018-05-23T12:25:48.279Z,39.26
2018-05-23T12:26:48.066Z,38.65
2018-05-23T12:27:48.108Z,38.77
2018-05-23T12:28:48.394Z,38.76
2018-05-23T12:29:48.187Z,38.68
2018-05-23T12:30:48.206Z,38.38
2018-05-23T12:31:48.496Z,38.65
2018-05-23T12:32:48.541Z,39.34
2018-05-23T12:33:48.310Z,39.92
2018-05-23T12:34:48.602Z,39.97
2018-05-23T12:35:48.384Z,40.27
2018-05-23T12:36:48.678Z,40.47
2018-05-23T12:37:48.470Z,40.49
2018-05-23T12:38:48.740Z,40.62
2018-05-23T12:39:48.831Z,40.35
2018-05-23T12:40:48.825Z,40.14
2018-05-23T12:41:48.597Z,40.33
2018-05-23T12:42:48.633Z,40.73
2018-05-23T12:43:48.666Z,40.95
2018-05-23T12:44:48.961Z,41.4
2018-05-23T12:45:49.003Z,41.85
2018-05-23T12:46:48.769Z,41.94
2018-05-23T12:47:49.057Z,42.2
2018-05-23T12:48:48.851Z,41.99
2018-05-23T12:49:48.889Z,42.31
2018-05-23T12:50:49.187Z,42.99
2018-05-23T12:51:48.974Z,42.81
2018-05-23T12:52:49.263Z,42.97
2018-05-23T12:53:49.335Z,43.53
2018-05-23T12:54:48.870Z,43.81
2018-05-23T12:55:49.371Z,44.17